FAGV weather

Gravelotte Airport
Gravelotte, Limpopo, South Africa

Public forecast

Using degrees Celsius for public forecast. Weather courtesy of forecast.io.

Closest aviation weather report (METAR) to Gravelotte Airport

Report is more than 6 hours old.

Closest report is Hendrik Van Eck Airport, 25.0 nm (46.3 km) E. Retrieved 2013/07/12 07:00 UTC (7 years ago):

FAPH 120700Z AUTO 17007KT //// // ////// 15/13 Q1029

Closest aviation forecast (TAF) to Gravelotte Airport

Forecast is more than 12 hours old.

Closest forecast is Hoedspruit Air Force Base Airport, 33.2 nm (61.5 km) SE. Retrieved 2017/05/23 04:01 UTC (3 years ago):

TAF FAHS 230300Z 2304/2315 VRB02KT CAVOK TX29/2312ZTN12/2304Z